sensor_id;sensor_type;location;lat;lon;timestamp;P1;durP1;ratioP1;P2;durP2;ratioP2
7941;SDS011;4016;50.758;7.150;2023-05-10T00:01:31;2.10;;;2.00;;
7941;SDS011;4016;50.758;7.150;2023-05-10T00:06:32;1.80;;;1.70;;
7941;SDS011;4016;50.758;7.150;2023-05-10T00:11:32;5.63;;;1.97;;
7941;SDS011;4016;50.758;7.150;2023-05-10T00:16:32;1.43;;;1.33;;
7941;SDS011;4016;50.758;7.150;2023-05-10T00:21:33;1.83;;;1.70;;
7941;SDS011;4016;50.758;7.150;2023-05-10T00:26:33;4.53;;;2.37;;
7941;SDS011;4016;50.758;7.150;2023-05-10T00:31:34;2.00;;;1.80;;
7941;SDS011;4016;50.758;7.150;2023-05-10T00:36:34;2.50;;;2.30;;
7941;SDS011;4016;50.758;7.150;2023-05-10T00:41:34;2.27;;;2.17;;
7941;SDS011;4016;50.758;7.150;2023-05-10T00:46:35;3.20;;;2.27;;
7941;SDS011;4016;50.758;7.150;2023-05-10T00:51:35;3.60;;;2.97;;
7941;SDS011;4016;50.758;7.150;2023-05-10T00:56:36;3.93;;;3.13;;
7941;SDS011;4016;50.758;7.150;2023-05-10T01:01:37;3.47;;;2.97;;
7941;SDS011;4016;50.758;7.150;2023-05-10T01:06:39;3.00;;;2.60;;
7941;SDS011;4016;50.758;7.150;2023-05-10T01:11:40;3.03;;;2.43;;
7941;SDS011;4016;50.758;7.150;2023-05-10T01:16:41;2.63;;;2.10;;
7941;SDS011;4016;50.758;7.150;2023-05-10T01:21:43;2.53;;;2.10;;
7941;SDS011;4016;50.758;7.150;2023-05-10T01:27:18;4.00;;;1.97;;
7941;SDS011;4016;50.758;7.150;2023-05-10T01:37:41;2.07;;;1.93;;
7941;SDS011;4016;50.758;7.150;2023-05-10T01:42:59;2.57;;;2.37;;
7941;SDS011;4016;50.758;7.150;2023-05-10T01:48:09;4.37;;;1.97;;
7941;SDS011;4016;50.758;7.150;2023-05-10T01:53:11;2.83;;;1.70;;
7941;SDS011;4016;50.758;7.150;2023-05-10T01:58:14;1.87;;;1.77;;
7941;SDS011;4016;50.758;7.150;2023-05-10T02:03:30;2.50;;;2.30;;
7941;SDS011;4016;50.758;7.150;2023-05-10T02:08:32;2.30;;;2.10;;
7941;SDS011;4016;50.758;7.150;2023-05-10T02:13:35;2.43;;;2.23;;
7941;SDS011;4016;50.758;7.150;2023-05-10T02:18:39;2.70;;;2.37;;
7941;SDS011;4016;50.758;7.150;2023-05-10T02:23:41;1.87;;;1.77;;
7941;SDS011;4016;50.758;7.150;2023-05-10T02:28:43;2.10;;;1.90;;
7941;SDS011;4016;50.758;7.150;2023-05-10T02:33:44;2.17;;;2.00;;
7941;SDS011;4016;50.758;7.150;2023-05-10T02:38:45;2.97;;;2.27;;
7941;SDS011;4016;50.758;7.150;2023-05-10T02:43:47;2.20;;;1.93;;
7941;SDS011;4016;50.758;7.150;2023-05-10T02:48:50;2.43;;;2.23;;
7941;SDS011;4016;50.758;7.150;2023-05-10T02:53:51;3.60;;;2.30;;
7941;SDS011;4016;50.758;7.150;2023-05-10T02:58:54;3.37;;;3.07;;
7941;SDS011;4016;50.758;7.150;2023-05-10T03:03:55;2.77;;;2.57;;
7941;SDS011;4016;50.758;7.150;2023-05-10T03:08:55;2.87;;;2.67;;
7941;SDS011;4016;50.758;7.150;2023-05-10T03:14:00;2.73;;;2.53;;
7941;SDS011;4016;50.758;7.150;2023-05-10T03:24:30;3.00;;;2.70;;
7941;SDS011;4016;50.758;7.150;2023-05-10T03:29:34;2.63;;;2.43;;
7941;SDS011;4016;50.758;7.150;2023-05-10T03:34:35;3.17;;;2.87;;
7941;SDS011;4016;50.758;7.150;2023-05-10T03:39:42;3.80;;;3.40;;
7941;SDS011;4016;50.758;7.150;2023-05-10T03:44:42;3.80;;;3.10;;
7941;SDS011;4016;50.758;7.150;2023-05-10T03:49:43;5.60;;;3.90;;
7941;SDS011;4016;50.758;7.150;2023-05-10T03:54:43;5.70;;;4.33;;
7941;SDS011;4016;50.758;7.150;2023-05-10T03:59:43;5.03;;;4.20;;
7941;SDS011;4016;50.758;7.150;2023-05-10T04:04:44;4.97;;;4.10;;
7941;SDS011;4016;50.758;7.150;2023-05-10T04:09:45;5.63;;;4.20;;
7941;SDS011;4016;50.758;7.150;2023-05-10T04:14:45;7.20;;;5.20;;
7941;SDS011;4016;50.758;7.150;2023-05-10T04:19:45;6.03;;;4.77;;
7941;SDS011;4016;50.758;7.150;2023-05-10T04:24:46;6.27;;;4.30;;
7941;SDS011;4016;50.758;7.150;2023-05-10T04:29:46;8.10;;;5.10;;
7941;SDS011;4016;50.758;7.150;2023-05-10T04:34:47;7.47;;;5.37;;
7941;SDS011;4016;50.758;7.150;2023-05-10T04:39:47;7.60;;;6.33;;
7941;SDS011;4016;50.758;7.150;2023-05-10T04:44:47;10.03;;;7.00;;
7941;SDS011;4016;50.758;7.150;2023-05-10T04:49:48;8.90;;;6.67;;
7941;SDS011;4016;50.758;7.150;2023-05-10T04:54:48;10.10;;;7.47;;
7941;SDS011;4016;50.758;7.150;2023-05-10T04:59:49;7.97;;;7.00;;
7941;SDS011;4016;50.758;7.150;2023-05-10T05:04:49;8.33;;;6.50;;
7941;SDS011;4016;50.758;7.150;2023-05-10T05:09:49;9.70;;;6.97;;
7941;SDS011;4016;50.758;7.150;2023-05-10T05:14:50;10.83;;;7.23;;
7941;SDS011;4016;50.758;7.150;2023-05-10T05:19:50;9.73;;;7.10;;
7941;SDS011;4016;50.758;7.150;2023-05-10T05:24:50;8.63;;;7.27;;
7941;SDS011;4016;50.758;7.150;2023-05-10T05:29:54;12.07;;;7.33;;
7941;SDS011;4016;50.758;7.150;2023-05-10T05:34:55;8.97;;;7.53;;
7941;SDS011;4016;50.758;7.150;2023-05-10T05:39:56;8.53;;;6.73;;
7941;SDS011;4016;50.758;7.150;2023-05-10T05:44:56;11.47;;;8.57;;
7941;SDS011;4016;50.758;7.150;2023-05-10T05:49:57;12.43;;;9.33;;
7941;SDS011;4016;50.758;7.150;2023-05-10T05:54:57;11.50;;;8.10;;
7941;SDS011;4016;50.758;7.150;2023-05-10T05:59:57;11.17;;;8.67;;
7941;SDS011;4016;50.758;7.150;2023-05-10T06:04:58;10.30;;;8.00;;
7941;SDS011;4016;50.758;7.150;2023-05-10T06:09:58;10.70;;;8.43;;
7941;SDS011;4016;50.758;7.150;2023-05-10T06:14:59;10.97;;;8.60;;
7941;SDS011;4016;50.758;7.150;2023-05-10T06:19:59;9.57;;;7.80;;
7941;SDS011;4016;50.758;7.150;2023-05-10T06:25:00;9.70;;;7.30;;
7941;SDS011;4016;50.758;7.150;2023-05-10T06:30:00;7.80;;;6.50;;
7941;SDS011;4016;50.758;7.150;2023-05-10T06:35:00;8.23;;;6.67;;
7941;SDS011;4016;50.758;7.150;2023-05-10T06:40:01;8.20;;;5.90;;
7941;SDS011;4016;50.758;7.150;2023-05-10T06:45:02;7.67;;;6.00;;
7941;SDS011;4016;50.758;7.150;2023-05-10T06:50:02;7.87;;;6.13;;
7941;SDS011;4016;50.758;7.150;2023-05-10T06:55:03;7.40;;;5.03;;
7941;SDS011;4016;50.758;7.150;2023-05-10T07:00:04;5.83;;;4.80;;
7941;SDS011;4016;50.758;7.150;2023-05-10T07:05:07;9.00;;;5.67;;
7941;SDS011;4016;50.758;7.150;2023-05-10T07:10:07;6.77;;;4.47;;
7941;SDS011;4016;50.758;7.150;2023-05-10T07:15:08;4.63;;;4.23;;
7941;SDS011;4016;50.758;7.150;2023-05-10T07:20:09;4.80;;;3.90;;
7941;SDS011;4016;50.758;7.150;2023-05-10T07:25:10;5.77;;;3.87;;
7941;SDS011;4016;50.758;7.150;2023-05-10T07:30:10;4.00;;;3.53;;
7941;SDS011;4016;50.758;7.150;2023-05-10T07:35:11;4.70;;;3.70;;
7941;SDS011;4016;50.758;7.150;2023-05-10T07:40:12;3.97;;;3.57;;
7941;SDS011;4016;50.758;7.150;2023-05-10T07:45:12;4.00;;;3.10;;
7941;SDS011;4016;50.758;7.150;2023-05-10T07:50:12;5.00;;;3.83;;
7941;SDS011;4016;50.758;7.150;2023-05-10T07:55:13;5.20;;;4.27;;
7941;SDS011;4016;50.758;7.150;2023-05-10T08:00:16;4.37;;;3.73;;
7941;SDS011;4016;50.758;7.150;2023-05-10T08:05:18;4.27;;;3.87;;
7941;SDS011;4016;50.758;7.150;2023-05-10T08:10:18;6.07;;;3.83;;
7941;SDS011;4016;50.758;7.150;2023-05-10T08:15:19;4.17;;;3.63;;
7941;SDS011;4016;50.758;7.150;2023-05-10T08:20:19;5.13;;;3.83;;
7941;SDS011;4016;50.758;7.150;2023-05-10T08:25:20;5.03;;;3.80;;
7941;SDS011;4016;50.758;7.150;2023-05-10T08:30:20;5.87;;;4.13;;
7941;SDS011;4016;50.758;7.150;2023-05-10T08:35:21;5.77;;;4.40;;
7941;SDS011;4016;50.758;7.150;2023-05-10T08:40:21;5.80;;;4.37;;
7941;SDS011;4016;50.758;7.150;2023-05-10T08:45:24;4.73;;;4.27;;
7941;SDS011;4016;50.758;7.150;2023-05-10T08:50:25;6.30;;;4.50;;
7941;SDS011;4016;50.758;7.150;2023-05-10T08:55:25;5.37;;;4.20;;
7941;SDS011;4016;50.758;7.150;2023-05-10T09:00:26;6.37;;;4.23;;
7941;SDS011;4016;50.758;7.150;2023-05-10T09:05:28;4.27;;;3.77;;
7941;SDS011;4016;50.758;7.150;2023-05-10T09:10:29;4.50;;;3.97;;
7941;SDS011;4016;50.758;7.150;2023-05-10T09:15:30;6.33;;;3.37;;
7941;SDS011;4016;50.758;7.150;2023-05-10T09:20:31;3.17;;;2.80;;
7941;SDS011;4016;50.758;7.150;2023-05-10T09:25:31;3.30;;;2.00;;
7941;SDS011;4016;50.758;7.150;2023-05-10T09:30:35;2.03;;;1.87;;
7941;SDS011;4016;50.758;7.150;2023-05-10T09:35:35;3.37;;;2.10;;
7941;SDS011;4016;50.758;7.150;2023-05-10T09:40:37;1.80;;;1.70;;
7941;SDS011;4016;50.758;7.150;2023-05-10T09:45:37;2.27;;;2.07;;
7941;SDS011;4016;50.758;7.150;2023-05-10T09:50:37;2.23;;;2.03;;
7941;SDS011;4016;50.758;7.150;2023-05-10T09:55:39;2.13;;;1.90;;
7941;SDS011;4016;50.758;7.150;2023-05-10T10:00:42;2.23;;;2.03;;
7941;SDS011;4016;50.758;7.150;2023-05-10T10:05:43;2.30;;;2.10;;
7941;SDS011;4016;50.758;7.150;2023-05-10T10:10:44;2.20;;;2.10;;
7941;SDS011;4016;50.758;7.150;2023-05-10T10:15:46;2.57;;;2.37;;
7941;SDS011;4016;50.758;7.150;2023-05-10T10:20:50;3.33;;;3.03;;
7941;SDS011;4016;50.758;7.150;2023-05-10T10:25:52;5.20;;;4.10;;
7941;SDS011;4016;50.758;7.150;2023-05-10T10:30:55;5.30;;;4.07;;
7941;SDS011;4016;50.758;7.150;2023-05-10T10:36:01;5.80;;;4.70;;
7941;SDS011;4016;50.758;7.150;2023-05-10T10:41:10;6.50;;;5.53;;
7941;SDS011;4016;50.758;7.150;2023-05-10T10:46:13;6.37;;;5.10;;
7941;SDS011;4016;50.758;7.150;2023-05-10T10:51:14;6.23;;;4.83;;
7941;SDS011;4016;50.758;7.150;2023-05-10T10:56:15;5.20;;;4.32;;
7941;SDS011;4016;50.758;7.150;2023-05-10T11:01:16;4.80;;;3.73;;
7941;SDS011;4016;50.758;7.150;2023-05-10T11:06:18;4.80;;;3.85;;
7941;SDS011;4016;50.758;7.150;2023-05-10T11:11:29;5.47;;;3.95;;
7941;SDS011;4016;50.758;7.150;2023-05-10T11:16:30;3.28;;;2.92;;
7941;SDS011;4016;50.758;7.150;2023-05-10T11:21:47;2.13;;;2.03;;
7941;SDS011;4016;50.758;7.150;2023-05-10T11:26:51;2.47;;;2.28;;
7941;SDS011;4016;50.758;7.150;2023-05-10T11:31:53;2.35;;;2.20;;
7941;SDS011;4016;50.758;7.150;2023-05-10T11:36:57;2.53;;;2.33;;
7941;SDS011;4016;50.758;7.150;2023-05-10T11:41:58;2.67;;;2.47;;
7941;SDS011;4016;50.758;7.150;2023-05-10T11:46:59;2.42;;;2.17;;
7941;SDS011;4016;50.758;7.150;2023-05-10T11:52:06;2.20;;;2.10;;
7941;SDS011;4016;50.758;7.150;2023-05-10T11:57:08;1.90;;;1.80;;
7941;SDS011;4016;50.758;7.150;2023-05-10T12:02:08;1.98;;;1.88;;
7941;SDS011;4016;50.758;7.150;2023-05-10T12:07:09;1.85;;;1.75;;
7941;SDS011;4016;50.758;7.150;2023-05-10T12:12:10;2.45;;;2.35;;
7941;SDS011;4016;50.758;7.150;2023-05-10T12:17:16;2.25;;;2.08;;
7941;SDS011;4016;50.758;7.150;2023-05-10T12:22:20;2.22;;;2.13;;
7941;SDS011;4016;50.758;7.150;2023-05-10T12:27:21;2.47;;;2.28;;
7941;SDS011;4016;50.758;7.150;2023-05-10T12:32:21;2.38;;;2.17;;
7941;SDS011;4016;50.758;7.150;2023-05-10T12:37:36;1.95;;;1.85;;
7941;SDS011;4016;50.758;7.150;2023-05-10T12:42:39;2.47;;;1.63;;
7941;SDS011;4016;50.758;7.150;2023-05-10T12:47:40;2.53;;;2.33;;
7941;SDS011;4016;50.758;7.150;2023-05-10T12:52:40;2.10;;;2.00;;
7941;SDS011;4016;50.758;7.150;2023-05-10T12:57:41;2.08;;;1.98;;
7941;SDS011;4016;50.758;7.150;2023-05-10T13:02:41;1.80;;;1.70;;
7941;SDS011;4016;50.758;7.150;2023-05-10T13:07:41;1.42;;;1.42;;
7941;SDS011;4016;50.758;7.150;2023-05-10T13:12:43;1.88;;;1.77;;
7941;SDS011;4016;50.758;7.150;2023-05-10T13:17:44;1.88;;;1.77;;
7941;SDS011;4016;50.758;7.150;2023-05-10T13:22:45;2.35;;;2.15;;
7941;SDS011;4016;50.758;7.150;2023-05-10T13:27:45;1.90;;;1.80;;
7941;SDS011;4016;50.758;7.150;2023-05-10T13:32:46;1.98;;;1.88;;
7941;SDS011;4016;50.758;7.150;2023-05-10T13:37:46;2.63;;;1.90;;
7941;SDS011;4016;50.758;7.150;2023-05-10T13:42:46;1.80;;;1.70;;
7941;SDS011;4016;50.758;7.150;2023-05-10T13:47:47;2.28;;;2.17;;
7941;SDS011;4016;50.758;7.150;2023-05-10T13:52:47;3.40;;;2.10;;
7941;SDS011;4016;50.758;7.150;2023-05-10T13:57:48;1.95;;;1.85;;
7941;SDS011;4016;50.758;7.150;2023-05-10T14:02:48;2.50;;;2.30;;
7941;SDS011;4016;50.758;7.150;2023-05-10T14:07:49;2.47;;;2.28;;
7941;SDS011;4016;50.758;7.150;2023-05-10T14:12:50;2.17;;;2.08;;
7941;SDS011;4016;50.758;7.150;2023-05-10T14:17:50;2.70;;;2.50;;
7941;SDS011;4016;50.758;7.150;2023-05-10T14:22:50;2.75;;;2.55;;
7941;SDS011;4016;50.758;7.150;2023-05-10T14:27:51;2.40;;;2.20;;
7941;SDS011;4016;50.758;7.150;2023-05-10T14:32:54;2.80;;;2.60;;
7941;SDS011;4016;50.758;7.150;2023-05-10T14:37:55;3.40;;;3.10;;
7941;SDS011;4016;50.758;7.150;2023-05-10T14:42:55;2.78;;;2.58;;
7941;SDS011;4016;50.758;7.150;2023-05-10T14:47:56;2.72;;;2.53;;
7941;SDS011;4016;50.758;7.150;2023-05-10T14:52:57;2.97;;;2.78;;
7941;SDS011;4016;50.758;7.150;2023-05-10T14:57:58;2.75;;;2.55;;
7941;SDS011;4016;50.758;7.150;2023-05-10T15:02:59;3.05;;;2.80;;
7941;SDS011;4016;50.758;7.150;2023-05-10T15:07:59;2.95;;;2.75;;
7941;SDS011;4016;50.758;7.150;2023-05-10T15:13:00;3.20;;;2.80;;
7941;SDS011;4016;50.758;7.150;2023-05-10T15:18:00;3.22;;;2.92;;
7941;SDS011;4016;50.758;7.150;2023-05-10T15:23:01;2.35;;;2.15;;
7941;SDS011;4016;50.758;7.150;2023-05-10T15:28:01;2.80;;;2.60;;
7941;SDS011;4016;50.758;7.150;2023-05-10T15:33:02;2.50;;;2.30;;
7941;SDS011;4016;50.758;7.150;2023-05-10T15:38:03;2.22;;;2.13;;
7941;SDS011;4016;50.758;7.150;2023-05-10T15:43:03;2.22;;;2.03;;
7941;SDS011;4016;50.758;7.150;2023-05-10T15:48:05;1.70;;;1.60;;
7941;SDS011;4016;50.758;7.150;2023-05-10T15:53:05;1.67;;;1.58;;
7941;SDS011;4016;50.758;7.150;2023-05-10T15:58:05;2.97;;;1.80;;
7941;SDS011;4016;50.758;7.150;2023-05-10T16:03:06;2.47;;;2.28;;
7941;SDS011;4016;50.758;7.150;2023-05-10T16:08:07;2.97;;;2.23;;
7941;SDS011;4016;50.758;7.150;2023-05-10T16:13:07;2.77;;;2.53;;
7941;SDS011;4016;50.758;7.150;2023-05-10T16:18:08;3.07;;;2.77;;
7941;SDS011;4016;50.758;7.150;2023-05-10T16:23:09;2.60;;;2.40;;
7941;SDS011;4016;50.758;7.150;2023-05-10T16:28:10;2.90;;;2.60;;
7941;SDS011;4016;50.758;7.150;2023-05-10T16:33:10;3.10;;;2.73;;
7941;SDS011;4016;50.758;7.150;2023-05-10T16:38:11;2.70;;;2.50;;
7941;SDS011;4016;50.758;7.150;2023-05-10T16:43:11;2.87;;;2.67;;
7941;SDS011;4016;50.758;7.150;2023-05-10T16:48:12;3.87;;;2.80;;
7941;SDS011;4016;50.758;7.150;2023-05-10T16:53:12;2.60;;;2.40;;
7941;SDS011;4016;50.758;7.150;2023-05-10T16:58:13;2.67;;;2.47;;
7941;SDS011;4016;50.758;7.150;2023-05-10T17:03:13;2.80;;;2.60;;
7941;SDS011;4016;50.758;7.150;2023-05-10T17:08:15;2.60;;;2.40;;
7941;SDS011;4016;50.758;7.150;2023-05-10T17:13:15;2.77;;;2.57;;
7941;SDS011;4016;50.758;7.150;2023-05-10T17:18:16;2.80;;;2.60;;
7941;SDS011;4016;50.758;7.150;2023-05-10T17:23:17;3.50;;;2.60;;
7941;SDS011;4016;50.758;7.150;2023-05-10T17:28:17;2.70;;;2.50;;
7941;SDS011;4016;50.758;7.150;2023-05-10T17:33:17;2.50;;;2.30;;
7941;SDS011;4016;50.758;7.150;2023-05-10T17:38:18;2.70;;;2.50;;
7941;SDS011;4016;50.758;7.150;2023-05-10T17:43:19;2.78;;;2.58;;
7941;SDS011;4016;50.758;7.150;2023-05-10T17:48:19;2.17;;;2.08;;
7941;SDS011;4016;50.758;7.150;2023-05-10T17:53:20;2.70;;;2.50;;
7941;SDS011;4016;50.758;7.150;2023-05-10T17:58:20;2.87;;;2.67;;
7941;SDS011;4016;50.758;7.150;2023-05-10T18:03:20;2.40;;;2.27;;
7941;SDS011;4016;50.758;7.150;2023-05-10T18:08:21;2.30;;;2.10;;
7941;SDS011;4016;50.758;7.150;2023-05-10T18:13:22;3.20;;;2.40;;
7941;SDS011;4016;50.758;7.150;2023-05-10T18:18:24;2.40;;;2.20;;
7941;SDS011;4016;50.758;7.150;2023-05-10T18:23:24;7.40;;;5.10;;
7941;SDS011;4016;50.758;7.150;2023-05-10T18:28:26;4.73;;;4.03;;
7941;SDS011;4016;50.758;7.150;2023-05-10T18:33:26;3.63;;;2.80;;
7941;SDS011;4016;50.758;7.150;2023-05-10T18:38:27;3.33;;;2.40;;
7941;SDS011;4016;50.758;7.150;2023-05-10T18:43:27;2.20;;;2.00;;
7941;SDS011;4016;50.758;7.150;2023-05-10T18:48:28;2.30;;;2.20;;
7941;SDS011;4016;50.758;7.150;2023-05-10T18:53:28;2.77;;;2.57;;
7941;SDS011;4016;50.758;7.150;2023-05-10T18:58:30;3.10;;;2.80;;
7941;SDS011;4016;50.758;7.150;2023-05-10T19:03:30;2.63;;;2.43;;
7941;SDS011;4016;50.758;7.150;2023-05-10T19:08:31;3.70;;;2.80;;
7941;SDS011;4016;50.758;7.150;2023-05-10T19:13:31;2.67;;;2.47;;
7941;SDS011;4016;50.758;7.150;2023-05-10T19:18:31;2.37;;;2.17;;
7941;SDS011;4016;50.758;7.150;2023-05-10T19:23:32;3.80;;;2.90;;
7941;SDS011;4016;50.758;7.150;2023-05-10T19:28:33;2.97;;;2.67;;
7941;SDS011;4016;50.758;7.150;2023-05-10T19:33:34;3.50;;;3.20;;
7941;SDS011;4016;50.758;7.150;2023-05-10T19:38:35;2.83;;;2.63;;
7941;SDS011;4016;50.758;7.150;2023-05-10T19:43:36;3.70;;;3.40;;
7941;SDS011;4016;50.758;7.150;2023-05-10T19:48:37;3.30;;;3.00;;
7941;SDS011;4016;50.758;7.150;2023-05-10T19:53:37;3.50;;;3.20;;
7941;SDS011;4016;50.758;7.150;2023-05-10T19:58:42;2.90;;;2.70;;
7941;SDS011;4016;50.758;7.150;2023-05-10T20:03:43;3.47;;;3.10;;
7941;SDS011;4016;50.758;7.150;2023-05-10T20:08:43;3.87;;;3.30;;
7941;SDS011;4016;50.758;7.150;2023-05-10T20:13:44;2.87;;;2.67;;
7941;SDS011;4016;50.758;7.150;2023-05-10T20:18:44;3.20;;;2.90;;
7941;SDS011;4016;50.758;7.150;2023-05-10T20:23:45;3.50;;;3.20;;
7941;SDS011;4016;50.758;7.150;2023-05-10T20:28:45;3.27;;;2.97;;
7941;SDS011;4016;50.758;7.150;2023-05-10T20:33:46;3.33;;;3.03;;
7941;SDS011;4016;50.758;7.150;2023-05-10T20:38:46;3.77;;;3.40;;
7941;SDS011;4016;50.758;7.150;2023-05-10T20:43:46;3.60;;;3.30;;
7941;SDS011;4016;50.758;7.150;2023-05-10T20:48:47;4.13;;;3.73;;
7941;SDS011;4016;50.758;7.150;2023-05-10T20:53:47;3.90;;;3.50;;
7941;SDS011;4016;50.758;7.150;2023-05-10T20:58:47;3.87;;;3.33;;
7941;SDS011;4016;50.758;7.150;2023-05-10T21:03:48;4.03;;;3.67;;
7941;SDS011;4016;50.758;7.150;2023-05-10T21:08:48;3.67;;;3.37;;
7941;SDS011;4016;50.758;7.150;2023-05-10T21:13:49;3.53;;;3.23;;
7941;SDS011;4016;50.758;7.150;2023-05-10T21:18:50;3.17;;;2.93;;
7941;SDS011;4016;50.758;7.150;2023-05-10T21:23:50;4.00;;;3.70;;
7941;SDS011;4016;50.758;7.150;2023-05-10T21:28:51;4.47;;;3.43;;
7941;SDS011;4016;50.758;7.150;2023-05-10T21:33:51;3.90;;;3.50;;
7941;SDS011;4016;50.758;7.150;2023-05-10T21:38:52;3.50;;;3.20;;
7941;SDS011;4016;50.758;7.150;2023-05-10T21:43:52;4.73;;;3.50;;
7941;SDS011;4016;50.758;7.150;2023-05-10T21:48:53;3.70;;;3.40;;
7941;SDS011;4016;50.758;7.150;2023-05-10T21:53:53;4.93;;;3.80;;
7941;SDS011;4016;50.758;7.150;2023-05-10T21:58:54;5.97;;;3.87;;
7941;SDS011;4016;50.758;7.150;2023-05-10T22:03:54;3.57;;;3.27;;
7941;SDS011;4016;50.758;7.150;2023-05-10T22:08:54;4.20;;;3.33;;
7941;SDS011;4016;50.758;7.150;2023-05-10T22:13:55;3.63;;;3.03;;
7941;SDS011;4016;50.758;7.150;2023-05-10T22:18:55;3.47;;;3.17;;
7941;SDS011;4016;50.758;7.150;2023-05-10T22:23:56;3.20;;;2.90;;
7941;SDS011;4016;50.758;7.150;2023-05-10T22:28:56;4.37;;;3.20;;
7941;SDS011;4016;50.758;7.150;2023-05-10T22:33:56;2.77;;;2.57;;
7941;SDS011;4016;50.758;7.150;2023-05-10T22:38:57;3.03;;;2.73;;
7941;SDS011;4016;50.758;7.150;2023-05-10T22:43:57;3.33;;;3.00;;
7941;SDS011;4016;50.758;7.150;2023-05-10T22:48:58;3.20;;;2.90;;
7941;SDS011;4016;50.758;7.150;2023-05-10T22:53:58;2.37;;;2.17;;
7941;SDS011;4016;50.758;7.150;2023-05-10T22:58:59;3.43;;;1.93;;
7941;SDS011;4016;50.758;7.150;2023-05-10T23:03:59;2.10;;;2.00;;
7941;SDS011;4016;50.758;7.150;2023-05-10T23:08:59;1.70;;;1.60;;
7941;SDS011;4016;50.758;7.150;2023-05-10T23:14:00;1.07;;;1.07;;
7941;SDS011;4016;50.758;7.150;2023-05-10T23:19:00;2.17;;;1.30;;
7941;SDS011;4016;50.758;7.150;2023-05-10T23:24:00;1.10;;;1.10;;
7941;SDS011;4016;50.758;7.150;2023-05-10T23:29:01;0.90;;;0.90;;
7941;SDS011;4016;50.758;7.150;2023-05-10T23:34:01;1.57;;;1.00;;
7941;SDS011;4016;50.758;7.150;2023-05-10T23:39:02;3.23;;;0.83;;
7941;SDS011;4016;50.758;7.150;2023-05-10T23:44:03;0.83;;;0.83;;
7941;SDS011;4016;50.758;7.150;2023-05-10T23:49:03;1.07;;;0.97;;
7941;SDS011;4016;50.758;7.150;2023-05-10T23:54:04;0.67;;;0.67;;
7941;SDS011;4016;50.758;7.150;2023-05-10T23:59:04;0.87;;;0.87;;
